Decoded Metar for OITR (ORUMIEH in IRAN) (IATA:N/A) | Meteo·Mobile Aviation Weather
aviador You're here:

OITR Decoded Metar

ORUMIEH in IRAN
Report Time2019-02-22 04:00:00
UTC Time2019-02-22 04:07:51
Flight Rules vfr VFR
Wind160° at 02 kt
W.Decomp.*RWY 21: 1.2 kt HW 1.6 kt LCW
W.Rank160° ranks 35
Current wind is below 160° avg. (6.0)
Visibility9999 m
Phenomena:N/A
Clouds:Scattered 040 Hf
Broken 100 Hf
Expected CloudBase > 1,200 ft AGL from Temp-Dew spread
Ceiling10,000 ft
Temp-3°C (ISA -9)
Dew Point-6°C (80% RH)
AAT-6.4°C
QNH1017 hPa
Density Alt3,084 ft
Elevation4,304 ft
Report Wrong Elevation
Raw Report
METAR OITR 220400Z 16002KT 9999 SCT040 BKN100 M03/M06 Q1017=

Extra information for OITR:More info

Metar Taf Metar & Taf Last 4 Metars F.Rules Stats Wind Profile Meteogram Temp Stats Airport Information Weather charts Add Link Nearby VenuesMetar ALERT Operation Metar Decoded Social comments